Time;durP1;ratioP1;P1;durP2;ratioP2;P2;SDS_P1;SDS_P2;PMS_P1;PMS_P2;Temp;Humidity;BMP_temperature;BMP_pressure;BME280_temperature;BME280_humidity;BME280_pressure;Samples;Min_cycle;Max_cycle;Signal;HPM_P1;HPM_P2
2022/03/18 00:00:25;;;;;;;30.30;25.60;;;9.30;99.90;;;;;;4996676;28;20446;-69
2022/03/18 00:02:53;;;;;;;37.00;31.17;;;9.20;99.90;;;;;;4996811;28;20397;-69
2022/03/18 00:05:20;;;;;;;29.93;26.37;;;9.20;99.90;;;;;;4996181;28;20981;-69
2022/03/18 00:07:45;;;;;;;29.30;25.70;;;9.30;99.90;;;;;;4997226;28;20446;-69
2022/03/18 00:10:13;;;;;;;32.27;26.07;;;9.40;99.90;;;;;;4995807;28;20482;-70
2022/03/18 00:12:39;;;;;;;28.50;24.00;;;9.50;99.90;;;;;;4977794;28;20953;-69
2022/03/18 00:15:07;;;;;;;26.00;22.57;;;9.20;99.90;;;;;;4977266;28;20417;-70
2022/03/18 00:17:32;;;;;;;30.90;26.07;;;9.30;99.90;;;;;;4995366;28;20792;-69
2022/03/18 00:19:58;;;;;;;27.10;22.83;;;9.50;99.90;;;;;;4996309;28;20427;-69
2022/03/18 00:22:23;;;;;;;28.03;22.53;;;9.40;99.90;;;;;;4995909;28;20501;-70
2022/03/18 00:24:49;;;;;;;29.47;23.90;;;9.40;99.90;;;;;;4994111;28;20183;-70
2022/03/18 00:27:15;;;;;;;24.77;21.97;;;9.50;99.90;;;;;;4996169;28;20171;-69
2022/03/18 00:29:41;;;;;;;27.97;21.83;;;9.60;99.90;;;;;;4996405;28;20269;-69
2022/03/18 00:32:07;;;;;;;26.27;22.93;;;9.70;99.90;;;;;;4995728;28;20275;-69
2022/03/18 00:34:33;;;;;;;25.83;21.37;;;9.80;99.90;;;;;;4996825;28;20404;-69
2022/03/18 00:36:59;;;;;;;21.97;19.40;;;9.80;99.90;;;;;;4997146;28;20777;-69
2022/03/18 00:39:24;;;;;;;23.57;20.50;;;9.70;99.90;;;;;;4996745;28;20189;-70
2022/03/18 00:41:50;;;;;;;26.37;22.47;;;9.70;99.90;;;;;;4996306;28;20255;-69
2022/03/18 00:44:16;;;;;;;23.63;21.10;;;9.50;99.90;;;;;;4996536;28;20660;-69
2022/03/18 00:46:42;;;;;;;21.73;19.53;;;9.60;99.90;;;;;;4994963;28;20471;-69
2022/03/18 00:52:04;;;;;;;25.30;20.73;;;9.40;99.90;;;;;;4995318;28;20187;-69
2022/03/18 00:54:39;;;;;;;21.13;18.83;;;9.50;99.90;;;;;;4996093;28;20423;-69
2022/03/18 00:57:09;;;;;;;22.13;19.13;;;9.40;99.90;;;;;;4993970;28;20798;-69
2022/03/18 00:59:35;;;;;;;21.37;18.63;;;9.40;99.90;;;;;;4996078;28;20455;-69
2022/03/18 01:02:02;;;;;;;24.00;21.40;;;9.40;99.90;;;;;;4995349;28;20447;-70
2022/03/18 01:04:31;;;;;;;20.80;18.70;;;9.30;99.90;;;;;;4996085;28;20421;-69
2022/03/18 01:06:57;;;;;;;20.53;18.10;;;9.40;99.90;;;;;;4996009;28;20927;-71
2022/03/18 01:09:25;;;;;;;21.63;19.27;;;9.30;99.90;;;;;;4995726;28;20439;-71
2022/03/18 01:11:51;;;;;;;22.30;19.23;;;9.40;99.90;;;;;;4996070;28;20407;-71
2022/03/18 01:14:17;;;;;;;27.33;21.60;;;9.60;99.90;;;;;;4995700;28;20464;-70
2022/03/18 01:16:43;;;;;;;23.07;20.57;;;9.60;99.90;;;;;;4995172;28;20930;-70
2022/03/18 01:19:09;;;;;;;23.57;21.00;;;9.80;99.90;;;;;;4995532;28;20432;-71
2022/03/18 01:21:36;;;;;;;22.90;20.50;;;10.00;99.90;;;;;;4994352;28;20609;-71
2022/03/18 01:24:01;;;;;;;23.03;20.40;;;10.00;99.90;;;;;;4995844;28;20713;-71
2022/03/18 01:26:28;;;;;;;21.80;19.50;;;9.60;99.90;;;;;;4993146;28;20438;-71
2022/03/18 01:28:54;;;;;;;22.23;18.57;;;9.40;99.90;;;;;;4995937;28;20228;-71
2022/03/18 01:31:21;;;;;;;20.90;17.80;;;9.30;99.90;;;;;;4994952;28;20429;-71
2022/03/18 01:33:47;;;;;;;22.37;20.07;;;9.40;99.90;;;;;;4995230;28;20454;-71
2022/03/18 01:36:13;;;;;;;20.07;17.97;;;9.30;99.90;;;;;;4994799;28;20827;-70
2022/03/18 01:38:39;;;;;;;24.10;20.37;;;9.30;99.90;;;;;;4975699;28;20199;-71
2022/03/18 01:41:04;;;;;;;22.40;19.00;;;9.30;99.90;;;;;;4976496;28;20768;-71
2022/03/18 01:43:41;;;;;;;23.27;19.73;;;9.00;99.90;;;;;;4974387;28;20251;-71
2022/03/18 01:46:07;;;;;;;22.17;18.80;;;9.00;99.90;;;;;;4976345;28;20399;-71
2022/03/18 01:48:33;;;;;;;20.30;18.20;;;9.20;99.90;;;;;;4975719;28;20430;-71
2022/03/18 01:50:59;;;;;;;22.13;19.80;;;9.30;99.90;;;;;;4975519;28;20431;-70
2022/03/18 01:53:25;;;;;;;19.80;17.70;;;9.30;99.90;;;;;;4975485;28;20209;-71
2022/03/18 01:55:51;;;;;;;22.40;19.47;;;9.00;99.90;;;;;;4975418;28;20171;-71
2022/03/18 01:58:16;;;;;;;20.40;18.30;;;9.00;99.90;;;;;;4991823;28;20537;-71
2022/03/18 02:00:42;;;;;;;22.00;18.27;;;9.00;99.90;;;;;;4994962;28;20175;-72
2022/03/18 02:03:07;;;;;;;21.60;19.20;;;9.00;99.90;;;;;;4995803;28;20175;-70
2022/03/18 02:05:33;;;;;;;19.53;17.20;;;9.00;99.90;;;;;;4994613;28;20181;-71
2022/03/18 02:08:01;;;;;;;22.40;20.00;;;9.10;99.90;;;;;;4994596;28;20180;-71
2022/03/18 02:10:27;;;;;;;23.00;19.80;;;9.30;99.90;;;;;;4994945;28;20411;-71
2022/03/18 02:12:52;;;;;;;19.30;17.30;;;9.40;99.90;;;;;;4993075;28;20488;-71
2022/03/18 02:15:18;;;;;;;20.97;17.73;;;9.20;99.90;;;;;;4992297;28;20945;-70
2022/03/18 02:17:44;;;;;;;23.10;20.20;;;9.10;99.90;;;;;;4994820;28;20703;-71
2022/03/18 02:20:10;;;;;;;20.03;17.87;;;9.20;99.90;;;;;;4994314;28;20188;-71
2022/03/18 02:22:45;;;;;;;21.17;18.63;;;9.40;99.90;;;;;;4993428;28;20639;-71
2022/03/18 02:25:12;;;;;;;18.63;16.63;;;9.40;99.90;;;;;;4994964;28;20557;-71
2022/03/18 02:27:39;;;;;;;18.80;16.03;;;9.30;99.90;;;;;;4993123;28;20420;-71
2022/03/18 02:30:06;;;;;;;19.73;17.57;;;9.20;99.90;;;;;;5030674;23;20495;-71
2022/03/18 02:32:32;;;;;;;20.20;17.30;;;9.10;99.90;;;;;;5012853;28;20497;-72
2022/03/18 02:34:58;;;;;;;19.23;17.13;;;9.10;99.90;;;;;;5011037;28;20417;-73
2022/03/18 02:37:24;;;;;;;19.63;17.10;;;9.10;99.90;;;;;;5013166;28;20426;-71
2022/03/18 02:39:50;;;;;;;24.43;19.03;;;9.10;99.90;;;;;;5012719;28;20187;-73
2022/03/18 02:42:15;;;;;;;19.30;17.27;;;9.40;99.90;;;;;;5007712;28;20908;-72
2022/03/18 02:44:41;;;;;;;20.43;18.07;;;9.40;99.90;;;;;;5005655;28;20267;-72
2022/03/18 02:47:07;;;;;;;20.47;18.37;;;9.30;99.90;;;;;;5012712;28;20203;-73
2022/03/18 02:49:32;;;;;;;20.47;18.23;;;9.30;99.90;;;;;;5012946;28;20186;-72
2022/03/18 02:51:58;;;;;;;20.90;18.70;;;9.10;99.90;;;;;;5012826;28;20561;-72
2022/03/18 02:54:24;;;;;;;19.70;16.83;;;8.90;99.90;;;;;;5013114;28;20196;-72
2022/03/18 02:56:50;;;;;;;21.00;17.30;;;9.00;99.90;;;;;;5012562;28;20169;-72
2022/03/18 02:59:15;;;;;;;18.77;16.77;;;9.10;99.90;;;;;;5013051;28;20210;-71
2022/03/18 03:01:41;;;;;;;18.23;16.40;;;9.10;99.90;;;;;;5012816;28;20159;-71
2022/03/18 03:04:07;;;;;;;20.60;18.40;;;9.00;99.90;;;;;;5012694;28;20183;-71
2022/03/18 03:09:16;;;;;;;18.87;16.87;;;8.70;99.90;;;;;;5013443;28;20196;-72
2022/03/18 03:11:46;;;;;;;19.97;17.50;;;8.70;99.90;;;;;;5014004;28;20418;-73
2022/03/18 03:14:12;;;;;;;19.90;17.73;;;8.80;99.90;;;;;;5014091;28;20210;-72
2022/03/18 03:16:38;;;;;;;21.57;18.03;;;8.80;99.90;;;;;;5013649;28;20409;-72
2022/03/18 03:19:04;;;;;;;21.93;18.23;;;8.80;99.90;;;;;;5012845;28;20429;-72
2022/03/18 03:21:30;;;;;;;22.57;18.50;;;8.80;99.90;;;;;;5010737;28;20178;-73
2022/03/18 03:23:56;;;;;;;20.10;16.40;;;8.70;99.90;;;;;;5013072;28;20164;-72
2022/03/18 03:26:22;;;;;;;20.20;17.63;;;8.80;99.90;;;;;;5012811;28;20406;-72
2022/03/18 03:28:48;;;;;;;20.90;17.13;;;8.90;99.90;;;;;;5012703;28;20460;-72
2022/03/18 03:31:14;;;;;;;20.60;17.63;;;9.00;99.90;;;;;;5012418;28;20430;-73
2022/03/18 03:33:39;;;;;;;21.50;15.77;;;9.10;99.90;;;;;;5012440;28;20863;-72
2022/03/18 03:36:05;;;;;;;22.20;17.90;;;9.00;99.90;;;;;;5013148;28;20271;-72
2022/03/18 03:38:31;;;;;;;21.23;18.00;;;9.00;99.90;;;;;;5011501;28;20195;-72
2022/03/18 03:40:57;;;;;;;20.07;17.83;;;8.80;99.90;;;;;;5012853;28;20429;-72
2022/03/18 03:43:22;;;;;;;18.70;15.93;;;8.80;99.90;;;;;;5012422;28;20593;-72
2022/03/18 03:45:48;;;;;;;18.90;16.80;;;9.00;99.90;;;;;;5012677;28;20194;-72
2022/03/18 03:48:14;;;;;;;17.13;15.33;;;8.90;99.90;;;;;;5011005;28;20233;-72
2022/03/18 03:50:42;;;;;;;21.07;18.30;;;8.80;99.90;;;;;;5012510;28;20478;-72
2022/03/18 03:53:09;;;;;;;22.10;16.80;;;8.80;99.90;;;;;;5012109;28;20199;-71
2022/03/18 03:55:39;;;;;;;20.87;16.07;;;8.90;99.90;;;;;;5013589;28;20417;-72
2022/03/18 03:58:08;;;;;;;20.53;17.83;;;9.00;99.90;;;;;;5016204;28;20476;-72
2022/03/18 04:00:36;;;;;;;20.13;16.60;;;8.90;99.90;;;;;;5016489;28;20529;-73
2022/03/18 04:03:05;;;;;;;20.63;17.20;;;8.70;99.90;;;;;;5016535;28;20959;-72
2022/03/18 04:05:32;;;;;;;23.00;17.53;;;8.80;99.90;;;;;;5014928;28;20919;-72
2022/03/18 04:07:57;;;;;;;18.37;16.33;;;8.90;99.90;;;;;;5015677;28;20426;-72
2022/03/18 04:10:23;;;;;;;19.63;17.53;;;8.90;99.90;;;;;;5015712;28;20492;-72
2022/03/18 04:12:48;;;;;;;21.87;17.63;;;8.90;99.90;;;;;;5015663;28;20187;-71
2022/03/18 04:15:14;;;;;;;23.13;18.80;;;8.90;99.90;;;;;;5015953;28;20481;-71
2022/03/18 04:17:43;;;;;;;19.37;17.27;;;9.00;99.90;;;;;;5016069;28;20223;-71
2022/03/18 04:20:11;;;;;;;19.37;16.53;;;9.20;99.90;;;;;;5015401;28;20195;-72
2022/03/18 04:22:38;;;;;;;18.30;15.87;;;9.30;99.90;;;;;;5014358;28;20797;-71
2022/03/18 04:25:04;;;;;;;21.10;17.00;;;9.10;99.90;;;;;;5015075;28;20418;-71
2022/03/18 04:27:30;;;;;;;18.53;16.53;;;9.30;99.90;;;;;;5030984;28;20449;-72
2022/03/18 04:29:55;;;;;;;18.70;16.60;;;9.20;99.90;;;;;;5015536;28;20890;-72
2022/03/18 04:32:21;;;;;;;19.43;17.33;;;9.00;99.90;;;;;;5015526;28;20171;-71
2022/03/18 04:34:46;;;;;;;18.40;16.10;;;9.10;99.90;;;;;;5014133;28;20171;-72
2022/03/18 04:37:12;;;;;;;18.57;15.20;;;9.00;99.90;;;;;;5013627;28;20191;-72
2022/03/18 04:39:37;;;;;;;21.57;17.90;;;8.90;99.90;;;;;;5015292;28;20722;-72
2022/03/18 04:42:03;;;;;;;19.80;16.57;;;8.70;99.90;;;;;;5015330;28;20175;-72
2022/03/18 04:44:29;;;;;;;18.77;16.17;;;8.60;99.90;;;;;;5016061;28;20569;-72
2022/03/18 04:46:54;;;;;;;20.27;16.80;;;8.70;99.90;;;;;;5015584;28;20468;-72
2022/03/18 04:49:20;;;;;;;22.20;18.93;;;8.70;99.90;;;;;;5015040;28;20259;-71
2022/03/18 04:51:46;;;;;;;18.37;16.30;;;8.80;99.90;;;;;;5014394;28;20205;-71
2022/03/18 04:54:11;;;;;;;23.57;19.17;;;8.90;99.90;;;;;;5013687;28;20675;-71
2022/03/18 04:59:22;;;;;;;20.20;16.97;;;9.00;99.90;;;;;;5015136;28;20214;-71
2022/03/18 05:01:48;;;;;;;23.80;19.60;;;8.90;99.90;;;;;;5014846;28;20406;-72
2022/03/18 05:04:13;;;;;;;21.00;16.90;;;9.00;99.90;;;;;;5014488;28;20410;-71
2022/03/18 05:06:39;;;;;;;20.07;16.93;;;9.00;99.90;;;;;;5014028;28;20261;-71
2022/03/18 05:09:05;;;;;;;24.00;18.67;;;8.80;99.90;;;;;;5014317;28;20187;-71
2022/03/18 05:11:31;;;;;;;21.53;18.20;;;8.90;99.90;;;;;;5014714;28;20179;-71
2022/03/18 05:14:00;;;;;;;18.87;16.87;;;9.20;99.90;;;;;;5013908;28;20481;-72
2022/03/18 05:16:25;;;;;;;20.60;16.90;;;9.10;99.90;;;;;;5014884;28;20167;-72
2022/03/18 05:18:52;;;;;;;20.33;17.70;;;9.00;99.90;;;;;;5014359;28;20928;-72
2022/03/18 05:21:19;;;;;;;20.23;16.67;;;9.00;99.90;;;;;;5013072;28;20516;-72
2022/03/18 05:23:45;;;;;;;22.63;18.70;;;9.00;99.90;;;;;;5012937;28;20500;-71
2022/03/18 05:26:11;;;;;;;20.00;17.60;;;9.10;99.90;;;;;;5014945;28;20905;-71
2022/03/18 05:28:37;;;;;;;21.57;18.80;;;9.20;99.90;;;;;;5012810;28;20463;-71
2022/03/18 05:31:03;;;;;;;18.87;16.47;;;9.20;99.90;;;;;;5014536;28;20233;-71
2022/03/18 05:33:28;;;;;;;22.80;17.03;;;9.20;99.90;;;;;;5013461;28;20560;-71
2022/03/18 05:35:54;;;;;;;22.00;18.10;;;9.20;99.90;;;;;;5002201;28;20174;-71
2022/03/18 05:38:20;;;;;;;21.10;17.40;;;9.40;99.90;;;;;;5013814;28;20242;-71
2022/03/18 05:40:45;;;;;;;22.17;18.73;;;9.50;99.90;;;;;;5011634;28;20676;-71
2022/03/18 05:43:11;;;;;;;24.13;19.43;;;9.60;99.90;;;;;;5014315;28;20535;-71
2022/03/18 05:45:37;;;;;;;18.77;16.33;;;9.50;99.90;;;;;;5013803;28;20171;-71
2022/03/18 05:48:06;;;;;;;23.33;18.17;;;9.30;99.90;;;;;;5013998;28;20172;-71
2022/03/18 05:50:32;;;;;;;21.73;17.40;;;9.10;99.90;;;;;;5013085;28;20202;-72
2022/03/18 05:52:58;;;;;;;20.00;16.93;;;9.10;99.90;;;;;;5013874;28;20451;-71
2022/03/18 05:55:24;;;;;;;22.63;19.70;;;8.90;99.90;;;;;;5014453;28;20411;-71
2022/03/18 05:57:52;;;;;;;23.20;18.23;;;8.80;99.90;;;;;;5011491;28;20265;-71
2022/03/18 06:00:18;;;;;;;22.30;19.23;;;8.70;99.90;;;;;;5013756;28;20426;-72
2022/03/18 06:02:45;;;;;;;22.17;18.20;;;8.60;99.90;;;;;;5011453;28;20958;-71
2022/03/18 06:05:11;;;;;;;33.00;19.33;;;8.70;99.90;;;;;;5013957;28;20177;-71
2022/03/18 06:07:39;;;;;;;25.93;18.80;;;8.70;99.90;;;;;;5014167;28;20396;-72
2022/03/18 06:12:50;;;;;;;25.10;20.93;;;8.70;99.90;;;;;;5012797;28;20538;-71
2022/03/18 06:15:15;;;;;;;24.37;20.50;;;8.70;99.90;;;;;;5013805;28;20887;-71
2022/03/18 06:17:41;;;;;;;23.97;20.73;;;8.80;99.90;;;;;;5013307;28;20213;-71
2022/03/18 06:20:07;;;;;;;23.73;19.17;;;8.90;99.90;;;;;;5011306;28;20187;-71
2022/03/18 06:22:33;;;;;;;23.20;19.93;;;8.90;99.90;;;;;;5013545;28;20179;-71
2022/03/18 06:24:58;;;;;;;26.77;20.93;;;8.80;99.90;;;;;;5012137;28;20772;-71
2022/03/18 06:27:24;;;;;;;23.83;19.13;;;9.00;99.90;;;;;;5012083;28;20605;-71
2022/03/18 06:29:51;;;;;;;27.07;20.10;;;8.80;99.90;;;;;;5012887;28;20237;-71
2022/03/18 06:32:17;;;;;;;25.13;21.63;;;8.80;99.90;;;;;;5013218;28;20665;-72
2022/03/18 06:34:42;;;;;;;23.90;18.80;;;8.80;99.90;;;;;;5013954;28;20418;-71
2022/03/18 06:37:08;;;;;;;25.00;20.70;;;8.80;99.90;;;;;;5012466;28;20179;-72
2022/03/18 06:39:34;;;;;;;24.20;20.13;;;8.80;99.90;;;;;;5013195;28;20191;-72
2022/03/18 06:42:02;;;;;;;24.53;20.77;;;8.60;99.90;;;;;;5013221;28;20193;-71
2022/03/18 06:44:27;;;;;;;26.87;21.67;;;8.60;99.90;;;;;;5012208;28;20598;-72
2022/03/18 06:46:53;;;;;;;24.83;20.50;;;8.70;99.90;;;;;;5013356;28;20899;-72
2022/03/18 06:49:19;;;;;;;24.43;21.20;;;8.80;99.90;;;;;;5013149;28;20191;-72
2022/03/18 06:51:44;;;;;;;22.73;19.53;;;8.90;99.90;;;;;;5013254;28;20481;-71
2022/03/18 06:54:12;;;;;;;25.73;21.43;;;9.00;99.90;;;;;;5012929;28;20198;-72
2022/03/18 06:56:38;;;;;;;27.50;22.03;;;9.00;99.90;;;;;;5012296;28;20256;-73
2022/03/18 06:59:04;;;;;;;26.37;20.97;;;9.10;99.90;;;;;;5012553;28;20462;-72
2022/03/18 07:01:30;;;;;;;25.57;22.73;;;9.10;99.90;;;;;;5012165;28;20410;-72
2022/03/18 07:03:55;;;;;;;25.83;22.20;;;9.10;99.90;;;;;;5013090;28;20461;-72
2022/03/18 07:06:21;;;;;;;32.37;24.50;;;9.20;99.90;;;;;;5013207;28;20182;-72
2022/03/18 07:08:46;;;;;;;34.10;26.10;;;9.40;99.90;;;;;;5012944;28;20191;-72
2022/03/18 07:11:13;;;;;;;31.60;25.10;;;9.30;99.90;;;;;;5012677;28;20169;-72
2022/03/18 07:13:42;;;;;;;32.60;25.37;;;9.20;99.90;;;;;;5012731;28;20195;-72
2022/03/18 07:18:52;;;;;;;31.80;24.73;;;9.10;99.90;;;;;;5013007;28;20420;-72
2022/03/18 07:21:17;;;;;;;30.07;25.43;;;9.30;99.90;;;;;;5013084;28;20911;-72
2022/03/18 07:23:43;;;;;;;37.13;26.67;;;9.30;99.90;;;;;;5011681;28;20182;-72
2022/03/18 07:26:08;;;;;;;32.33;25.53;;;9.40;99.90;;;;;;5012846;28;20172;-72
2022/03/18 07:28:34;;;;;;;35.40;27.20;;;9.50;99.90;;;;;;5012803;28;20214;-72
2022/03/18 07:31:00;;;;;;;30.17;25.73;;;9.60;99.90;;;;;;5015373;28;20163;-72
2022/03/18 07:33:25;;;;;;;29.00;24.80;;;9.60;99.90;;;;;;5017182;28;20257;-72
2022/03/18 07:35:51;;;;;;;33.07;26.07;;;9.50;99.90;;;;;;5017780;28;20176;-72
2022/03/18 07:38:16;;;;;;;34.87;25.87;;;9.40;99.90;;;;;;5015683;28;20234;-72
2022/03/18 07:40:43;;;;;;;33.10;27.10;;;9.30;99.90;;;;;;5017428;28;20207;-72
2022/03/18 07:43:10;;;;;;;35.97;28.90;;;9.30;99.90;;;;;;5016937;28;20171;-72
2022/03/18 07:45:37;;;;;;;37.40;28.33;;;9.40;99.90;;;;;;5016254;28;20455;-72
2022/03/18 07:48:07;;;;;;;34.60;27.03;;;9.20;99.90;;;;;;5017314;28;20871;-72
2022/03/18 07:50:34;;;;;;;34.70;28.27;;;9.30;99.90;;;;;;5016558;28;21019;-72
2022/03/18 07:53:03;;;;;;;38.00;31.13;;;9.40;99.90;;;;;;5016540;28;20520;-72
2022/03/18 07:55:30;;;;;;;40.70;31.20;;;9.60;99.90;;;;;;5016764;28;20491;-72
2022/03/18 07:57:57;;;;;;;34.63;29.40;;;9.30;99.90;;;;;;5015754;28;20417;-72
2022/03/18 08:00:23;;;;;;;41.47;31.50;;;9.30;99.90;;;;;;5016222;28;20445;-72
2022/03/18 08:02:50;;;;;;;39.60;30.20;;;9.30;99.90;;;;;;5016293;28;20417;-72
2022/03/18 08:05:16;;;;;;;40.53;30.73;;;9.30;99.90;;;;;;5015453;28;20192;-72
2022/03/18 08:07:44;;;;;;;41.93;32.03;;;9.40;99.90;;;;;;5016513;28;20418;-74
2022/03/18 08:10:10;;;;;;;38.80;31.97;;;9.70;99.90;;;;;;5014585;28;20440;-72
2022/03/18 08:12:38;;;;;;;43.23;31.30;;;9.80;99.90;;;;;;5016080;28;20503;-73
2022/03/18 08:15:14;;;;;;;42.40;34.20;;;9.70;99.90;;;;;;5016344;28;20414;-73
2022/03/18 08:17:41;;;;;;;41.93;32.30;;;9.60;99.90;;;;;;5015958;28;20477;-73
2022/03/18 08:20:08;;;;;;;42.50;32.83;;;9.60;99.90;;;;;;5015733;28;20919;-73
2022/03/18 08:22:35;;;;;;;41.67;33.30;;;9.50;99.90;;;;;;5016091;28;20414;-73
2022/03/18 08:25:01;;;;;;;41.00;31.20;;;9.80;99.90;;;;;;5014759;28;20423;-73
2022/03/18 08:27:26;;;;;;;40.73;32.73;;;9.60;99.90;;;;;;5014875;28;20428;-75
2022/03/18 08:29:57;;;;;;;55.20;32.30;;;9.40;99.90;;;;;;5027732;23;20486;-69
2022/03/18 08:32:25;;;;;;;42.77;32.73;;;9.60;99.90;;;;;;5015989;28;20179;-69
2022/03/18 08:34:50;;;;;;;39.67;30.47;;;9.60;99.90;;;;;;5014937;28;20486;-69
2022/03/18 08:37:56;;;;;;;39.17;32.20;;;9.70;99.90;;;;;;5016116;28;20889;-69
2022/03/18 08:40:01;;;;;;;40.40;32.20;;;9.90;99.90;;;;;;5015544;28;20195;-69
2022/03/18 08:42:27;;;;;;;40.83;31.27;;;9.80;99.90;;;;;;5015184;28;20417;-69
2022/03/18 08:44:52;;;;;;;38.10;31.67;;;9.70;99.90;;;;;;5015794;28;20259;-68
2022/03/18 08:47:18;;;;;;;41.97;32.20;;;9.50;99.90;;;;;;5015755;28;20177;-69
2022/03/18 08:49:44;;;;;;;39.03;29.90;;;9.70;99.90;;;;;;5015522;28;20193;-69
2022/03/18 08:52:09;;;;;;;41.83;30.43;;;9.70;99.90;;;;;;5015731;28;20171;-68
2022/03/18 08:54:35;;;;;;;38.13;30.30;;;9.60;99.90;;;;;;5015503;28;20303;-69
2022/03/18 08:57:00;;;;;;;38.80;31.77;;;9.70;99.90;;;;;;5014277;28;20172;-70
2022/03/18 08:59:26;;;;;;;41.87;32.07;;;9.70;99.90;;;;;;5015472;28;20529;-70
2022/03/18 09:01:52;;;;;;;38.67;32.17;;;9.80;99.90;;;;;;5015499;28;20247;-69
2022/03/18 09:04:17;;;;;;;37.87;30.40;;;9.90;99.90;;;;;;5014327;28;20165;-69
2022/03/18 09:06:43;;;;;;;35.33;29.57;;;9.90;99.90;;;;;;5015518;28;20168;-69
2022/03/18 09:09:08;;;;;;;36.60;29.27;;;9.80;99.90;;;;;;5014848;28;20528;-69
2022/03/18 09:11:34;;;;;;;36.50;29.80;;;9.80;99.90;;;;;;5015093;28;20191;-69
2022/03/18 09:13:59;;;;;;;34.27;27.50;;;10.00;99.90;;;;;;5015315;28;20196;-69
2022/03/18 09:16:25;;;;;;;39.80;28.93;;;9.90;99.90;;;;;;5014274;28;20171;-69
2022/03/18 09:18:50;;;;;;;28.90;23.97;;;10.00;99.90;;;;;;5014985;28;20183;-70
2022/03/18 09:21:16;;;;;;;40.43;28.13;;;10.00;99.90;;;;;;5014948;28;20199;-69
2022/03/18 09:23:42;;;;;;;34.97;27.67;;;9.90;99.90;;;;;;5013695;28;20172;-69
2022/03/18 09:26:07;;;;;;;31.53;25.47;;;10.00;99.90;;;;;;5014926;28;20170;-70
2022/03/18 09:28:33;;;;;;;31.80;26.13;;;10.00;99.90;;;;;;5014763;28;20258;-69
2022/03/18 09:30:59;;;;;;;32.73;25.30;;;10.00;99.90;;;;;;5013530;28;20217;-69
2022/03/18 09:33:25;;;;;;;31.60;25.50;;;9.90;99.90;;;;;;5014678;28;20193;-69
2022/03/18 09:35:51;;;;;;;34.20;25.87;;;10.00;99.90;;;;;;5013672;28;20465;-69
2022/03/18 09:38:16;;;;;;;32.13;25.50;;;10.00;99.90;;;;;;5014867;28;20176;-69
2022/03/18 09:40:42;;;;;;;34.10;25.70;;;10.00;99.90;;;;;;5013583;28;20195;-68
2022/03/18 09:43:09;;;;;;;34.53;27.53;;;10.10;99.90;;;;;;5014437;28;20176;-68
2022/03/18 09:45:39;;;;;;;33.23;25.80;;;10.20;99.90;;;;;;5013469;28;20172;-69
2022/03/18 09:48:11;;;;;;;33.43;26.70;;;10.10;99.90;;;;;;5014698;28;20407;-69
2022/03/18 09:50:38;;;;;;;34.93;25.40;;;9.90;99.90;;;;;;5013685;28;20530;-69
2022/03/18 09:53:05;;;;;;;36.10;25.67;;;10.00;99.90;;;;;;5014077;28;20462;-69
2022/03/18 09:55:34;;;;;;;35.40;27.33;;;10.20;99.90;;;;;;5014084;28;20476;-69
2022/03/18 09:58:00;;;;;;;30.77;25.20;;;10.20;99.90;;;;;;5014610;28;20407;-69
2022/03/18 10:00:26;;;;;;;30.83;24.50;;;10.40;99.90;;;;;;5014819;28;20441;-69
2022/03/18 10:03:17;;;;;;;31.57;26.10;;;10.50;99.90;;;;;;5014373;28;20426;-68
2022/03/18 10:05:53;;;;;;;38.30;26.50;;;10.50;99.90;;;;;;5014225;28;20230;-69
2022/03/18 10:08:21;;;;;;;30.30;25.90;;;10.20;99.90;;;;;;5013810;28;20388;-69
2022/03/18 10:10:47;;;;;;;34.37;27.17;;;10.10;99.90;;;;;;5011499;28;20432;-71
2022/03/18 10:13:15;;;;;;;32.43;27.70;;;10.50;99.90;;;;;;4994516;28;20456;-69
2022/03/18 10:15:41;;;;;;;31.57;24.90;;;10.70;99.90;;;;;;4994766;28;20404;-68
2022/03/18 10:18:13;;;;;;;39.00;27.03;;;10.70;99.90;;;;;;4994459;28;20408;-69
2022/03/18 10:20:45;;;;;;;34.90;27.00;;;10.80;99.90;;;;;;5007198;28;20430;-68
2022/03/18 10:23:23;;;;;;;32.67;26.80;;;11.00;99.90;;;;;;5014845;28;20388;-68
2022/03/18 10:25:56;;;;;;;36.10;26.60;;;10.70;99.90;;;;;;5013633;28;20448;-68
2022/03/18 10:28:44;;;;;;;30.70;25.43;;;10.70;99.90;;;;;;5014325;28;20391;-69
2022/03/18 10:31:18;;;;;;;31.10;26.10;;;11.00;99.90;;;;;;5014021;28;20445;-69
2022/03/18 10:39:35;;;;;;;33.57;27.13;;;11.20;99.90;;;;;;5014486;28;20899;-68
2022/03/18 10:42:05;;;;;;;36.10;27.40;;;11.10;99.90;;;;;;5014333;28;20384;-69
2022/03/18 10:44:52;;;;;;;34.50;26.67;;;11.20;99.90;;;;;;5013872;28;20417;-69
2022/03/18 10:47:31;;;;;;;34.20;25.10;;;11.60;99.90;;;;;;5013870;28;20499;-70
2022/03/18 10:50:11;;;;;;;35.77;26.20;;;12.00;99.90;;;;;;5013814;28;20435;-70
2022/03/18 10:52:41;;;;;;;36.70;30.80;;;12.00;99.90;;;;;;4993915;28;20410;-70
2022/03/18 10:55:19;;;;;;;34.13;27.87;;;11.80;99.90;;;;;;4993966;28;20415;-70
2022/03/18 10:58:01;;;;;;;35.37;25.67;;;11.80;99.90;;;;;;4993795;28;20412;-70
2022/03/18 11:00:30;;;;;;;30.47;26.27;;;12.20;99.90;;;;;;4996501;28;20483;-69
2022/03/18 11:02:59;;;;;;;33.57;28.13;;;12.50;99.90;;;;;;5013154;28;20411;-70
2022/03/18 11:05:29;;;;;;;38.03;32.40;;;12.20;99.90;;;;;;5013117;28;20514;-70
2022/03/18 11:07:55;;;;;;;32.87;26.60;;;12.30;99.90;;;;;;5012480;28;20423;-70
2022/03/18 11:13:07;;;;;;;31.70;27.83;;;12.30;99.90;;;;;;5013370;28;20194;-70
2022/03/18 11:15:39;;;;;;;38.43;28.47;;;11.70;99.90;;;;;;5012080;28;20444;-70
2022/03/18 11:18:08;;;;;;;35.37;28.63;;;11.80;99.90;;;;;;5013571;28;20728;-70
2022/03/18 11:20:33;;;;;;;32.50;28.17;;;12.40;99.90;;;;;;5012415;28;21006;-69
2022/03/18 11:23:00;;;;;;;43.17;31.03;;;12.60;99.90;;;;;;5006937;28;20420;-69
2022/03/18 11:25:27;;;;;;;33.00;27.67;;;12.60;99.90;;;;;;5002150;28;20420;-69
2022/03/18 11:27:54;;;;;;;35.27;28.87;;;12.70;99.90;;;;;;4993856;28;20414;-69
2022/03/18 11:30:22;;;;;;;34.60;28.10;;;12.70;99.90;;;;;;4993279;28;20471;-69
2022/03/18 11:33:06;;;;;;;33.67;28.03;;;12.60;99.90;;;;;;4993674;28;20496;-69
2022/03/18 11:35:50;;;;;;;33.27;26.63;;;12.30;99.90;;;;;;4993654;28;20409;-69
2022/03/18 11:38:17;;;;;;;31.27;26.23;;;12.50;99.90;;;;;;4993813;28;20783;-70
2022/03/18 11:40:57;;;;;;;34.67;27.00;;;12.90;99.90;;;;;;4993462;28;20934;-69
2022/03/18 11:43:34;;;;;;;33.70;27.50;;;12.90;99.90;;;;;;4993379;28;20402;-70
2022/03/18 11:46:16;;;;;;;31.63;27.90;;;13.20;99.90;;;;;;4993303;28;20677;-70
2022/03/18 11:48:46;;;;;;;37.13;27.90;;;13.30;99.90;;;;;;4993573;28;20405;-69
2022/03/18 11:51:28;;;;;;;36.77;29.03;;;13.20;99.90;;;;;;5002569;28;20437;-71
2022/03/18 11:54:00;;;;;;;31.57;26.97;;;13.50;99.90;;;;;;5012552;28;20520;-70
2022/03/18 11:56:50;;;;;;;34.23;26.40;;;14.10;99.90;;;;;;5013690;28;20911;-70
2022/03/18 11:59:25;;;;;;;31.00;27.10;;;14.20;99.90;;;;;;5012923;28;20509;-70
2022/03/18 12:02:14;;;;;;;31.90;27.20;;;14.10;99.90;;;;;;5013041;28;20925;-71
2022/03/18 12:04:47;;;;;;;29.57;25.83;;;13.70;99.90;;;;;;5012653;28;21113;-70
2022/03/18 12:07:21;;;;;;;33.70;26.90;;;13.80;99.90;;;;;;5013244;28;20866;-71
2022/03/18 12:09:55;;;;;;;32.50;25.53;;;13.60;99.90;;;;;;5012563;28;20433;-69
2022/03/18 12:12:25;;;;;;;31.60;26.33;;;13.70;99.90;;;;;;5013329;28;20397;-69
2022/03/18 12:14:55;;;;;;;31.20;27.87;;;14.30;99.90;;;;;;5013514;28;21004;-69
2022/03/18 12:17:22;;;;;;;33.20;27.63;;;14.10;99.90;;;;;;5013246;28;20412;-69
2022/03/18 12:19:53;;;;;;;32.03;26.90;;;14.10;99.90;;;;;;5016056;28;20768;-68
2022/03/18 12:22:20;;;;;;;31.70;27.10;;;14.40;99.90;;;;;;5016160;28;20397;-70
2022/03/18 12:24:51;;;;;;;33.83;28.77;;;14.20;99.90;;;;;;5016043;28;20425;-73
2022/03/18 12:27:22;;;;;;;33.27;28.27;;;13.60;99.90;;;;;;5017041;28;20414;-70
2022/03/18 12:29:48;;;;;;;35.50;29.77;;;13.30;99.90;;;;;;5012386;28;20457;-69
2022/03/18 12:32:15;;;;;;;33.23;28.97;;;12.90;99.90;;;;;;5020374;28;20423;-71
2022/03/18 12:34:52;;;;;;;33.60;29.90;;;12.60;99.90;;;;;;5038285;28;20201;-69
2022/03/18 12:37:22;;;;;;;33.47;27.97;;;12.60;99.90;;;;;;5035858;28;20403;-69
2022/03/18 12:40:09;;;;;;;34.13;30.43;;;12.80;99.90;;;;;;5035980;28;20423;-69
2022/03/18 12:42:56;;;;;;;36.50;29.70;;;12.70;99.90;;;;;;5028686;28;20921;-69
2022/03/18 12:45:29;;;;;;;34.20;27.83;;;13.20;99.90;;;;;;5035696;28;20403;-69
2022/03/18 12:48:00;;;;;;;35.47;29.40;;;13.50;99.90;;;;;;5036247;28;20404;-69
2022/03/18 12:50:34;;;;;;;38.10;28.67;;;13.60;99.90;;;;;;5035218;28;20439;-69
2022/03/18 12:53:20;;;;;;;33.07;29.57;;;13.90;99.90;;;;;;5035832;28;20449;-69
2022/03/18 12:55:51;;;;;;;32.07;28.67;;;14.70;99.90;;;;;;5019019;28;20418;-69
2022/03/18 12:58:18;;;;;;;30.00;26.63;;;14.60;99.90;;;;;;5015945;28;20457;-70